»·PEaware :: N2211M L70-KPSP

N2211M :: L70-KPSP

FLIGHT INFORMATION

Flight Status: Arrived
Operator: Privately registered:
United States
More flights under this callsign
Pilot: Shane E. (12470)
Aircraft: Unknown
(EPIC)
More flights by this aircraft type
Origin: L70 Agua Dulce
United States
Destination: KPSP Palm Springs Intl
United States
More flights between these airports :: More routes between these airports
Route: + PMD V197 POM V197 PDZ T306 PSP
File this flight plan on PilotEdge
Remarks:
Altitude:
(Current/Filed)
29,000ft
Speed:
(Current/Filed)
310kts
Departed: 13-Aug-17 05:49 PM
Arrived: 13-Aug-17 06:32 PM
Distance/Time
Traveled:
98nm/0:43
Distance/Time
To Go:
Arrived

Flight Plot

Page will automatically refresh every two minutes.

Flight plan parsing failed; only flown route is shown


Map Options




Map Legend


Flown Route
Filed Route
Departure Airport
Arrival Airport
Navaid (VOR, NDB)
Fix

Horizontal Profiles

Position Reports

Time Latitude Longitude Heading Altitude Ground
Speed
13-Aug-17 17:14 34.503265 -118.314666 143 2611ft 0kts
13-Aug-17 17:15 34.503265 -118.314666 143 2611ft 0kts
13-Aug-17 17:16 34.503265 -118.314666 143 2611ft 0kts
13-Aug-17 17:17 34.503265 -118.314666 143 2611ft 0kts
13-Aug-17 17:18 34.503265 -118.314666 143 2611ft 0kts
13-Aug-17 17:19 34.503265 -118.314666 143 2611ft 0kts
13-Aug-17 17:20 34.503265 -118.314666 143 2611ft 0kts
13-Aug-17 17:21 34.503265 -118.314666 143 2611ft 0kts
13-Aug-17 17:22 34.503265 -118.314666 143 2611ft 0kts
13-Aug-17 17:23 34.503265 -118.314666 143 2611ft 0kts
13-Aug-17 17:24 34.503265 -118.314666 143 2611ft 0kts
13-Aug-17 17:25 34.503265 -118.314666 143 2611ft 0kts
13-Aug-17 17:26 34.503265 -118.314666 143 2611ft 0kts
13-Aug-17 17:27 34.503265 -118.314666 143 2611ft 0kts
13-Aug-17 17:28 34.503265 -118.314666 143 2611ft 0kts
13-Aug-17 17:29 34.503265 -118.314666 143 2611ft 0kts
13-Aug-17 17:31 34.503265 -118.314666 143 2611ft 0kts
13-Aug-17 17:32 34.503265 -118.314666 143 2611ft 0kts
13-Aug-17 17:33 34.503265 -118.314666 143 2611ft 0kts
13-Aug-17 17:34 34.503265 -118.314666 143 2611ft 0kts
13-Aug-17 17:35 34.503265 -118.314666 143 2611ft 0kts
13-Aug-17 17:36 34.503265 -118.314666 143 2611ft 0kts
13-Aug-17 17:37 34.503265 -118.314666 143 2611ft 0kts
13-Aug-17 17:38 34.503265 -118.314666 143 2611ft 0kts
13-Aug-17 17:39 34.503265 -118.314666 143 2611ft 0kts
13-Aug-17 17:40 34.503265 -118.314666 143 2611ft 0kts
13-Aug-17 17:41 34.503265 -118.314666 143 2611ft 0kts
13-Aug-17 17:42 34.503265 -118.314666 143 2611ft 0kts
13-Aug-17 17:43 34.503265 -118.314666 143 2611ft 0kts
13-Aug-17 17:44 34.503265 -118.314666 143 2611ft 0kts
13-Aug-17 17:45 34.503265 -118.314666 143 2611ft 0kts
13-Aug-17 17:46 34.503264 -118.314666 144 2611ft 0kts
13-Aug-17 17:47 34.503264 -118.314666 144 2611ft 0kts
13-Aug-17 17:48 34.503264 -118.314665 144 2611ft 0kts
13-Aug-17 17:49 34.504546 -118.312342 54 2611ft 12kts
13-Aug-17 17:50 34.505773 -118.310358 52 2611ft 9kts
13-Aug-17 17:51 34.507586 -118.307456 53 2611ft 8kts
13-Aug-17 17:52 34.507734 -118.306926 128 2611ft 5kts
13-Aug-17 17:53 34.499089 -118.321282 232 2856ft 136kts
13-Aug-17 17:54 34.506940 -118.364885 355 4551ft 201kts
13-Aug-17 17:55 34.546764 -118.319489 52 6729ft 208kts
13-Aug-17 17:56 34.564429 -118.267771 69 8355ft 212kts
13-Aug-17 17:57 34.585506 -118.201472 67 9493ft 218kts
13-Aug-17 17:58 34.607913 -118.134051 67 9508ft 203kts
13-Aug-17 17:59 34.622207 -118.072741 118 9513ft 183kts
13-Aug-17 18:00 34.580362 -118.040986 157 9591ft 203kts
13-Aug-17 18:01 34.526710 -118.011751 159 11958ft 209kts
13-Aug-17 18:02 34.472536 -117.983931 161 13902ft 217kts
13-Aug-17 18:03 34.416183 -117.955532 162 15606ft 223kts
13-Aug-17 18:04 34.358723 -117.926738 162 17109ft 228kts
13-Aug-17 18:05 34.298939 -117.896820 163 18962ft 237kts
13-Aug-17 18:06 34.237931 -117.866350 164 20943ft 247kts
13-Aug-17 18:07 34.166978 -117.831190 163 20995ft 301kts
13-Aug-17 18:08 34.095205 -117.795306 160 20985ft 315kts
13-Aug-17 18:09 34.033517 -117.713649 131 20969ft 335kts
13-Aug-17 18:10 33.979912 -117.628549 130 20954ft 337kts
13-Aug-17 18:11 33.925850 -117.535872 109 20941ft 345kts
13-Aug-17 18:12 33.914748 -117.424872 94 20941ft 314kts
13-Aug-17 18:13 33.910174 -117.325369 94 20193ft 299kts
13-Aug-17 18:13 33.906668 -117.242661 94 18933ft 296kts
13-Aug-17 18:14 33.902635 -117.145324 93 17256ft 285kts
13-Aug-17 18:16 33.899018 -117.043228 94 15164ft 270kts
13-Aug-17 18:17 33.894418 -116.954661 93 13468ft 261kts
13-Aug-17 18:18 33.890695 -116.873234 93 13127ft 222kts
13-Aug-17 18:19 33.887579 -116.803980 93 12926ft 206kts
13-Aug-17 18:20 33.884100 -116.727959 93 11877ft 244kts
13-Aug-17 18:20 33.880952 -116.660153 92 11053ft 247kts
13-Aug-17 18:21 33.877145 -116.578931 92 10392ft 247kts
13-Aug-17 18:22 33.873176 -116.495443 92 9413ft 255kts
13-Aug-17 18:23 33.860092 -116.410107 114 8424ft 268kts
13-Aug-17 18:24 33.829394 -116.334536 116 7110ft 248kts
13-Aug-17 18:25 33.796618 -116.269009 157 6169ft 218kts
13-Aug-17 18:26 33.745267 -116.292190 204 4773ft 198kts
13-Aug-17 18:27 33.698666 -116.318208 236 3955ft 157kts
13-Aug-17 18:28 33.680526 -116.358211 278 3393ft 136kts
13-Aug-17 18:29 33.706201 -116.385703 317 2875ft 114kts
13-Aug-17 18:30 33.727102 -116.412461 322 2739ft 111kts
13-Aug-17 18:31 33.751300 -116.435922 320 2147ft 110kts
13-Aug-17 18:32 33.775204 -116.459183 323 1635ft 111kts
13-Aug-17 18:33 33.800391 -116.481481 324 1011ft 114kts
13-Aug-17 18:34 33.822975 -116.501728 325 426ft 71kts
13-Aug-17 18:35 33.829641 -116.507141 349 426ft 13kts
13-Aug-17 18:36 33.830374 -116.506852 63 426ft 2kts

Navigation Log

Ident Type
Flight plan parsing failed, navigation log unavailable